createdAt,value
2017-12-23T00:01:46.764Z,5.70
2017-12-23T00:04:16.527Z,5.80
2017-12-23T00:06:45.516Z,5.80
2017-12-23T00:09:14.490Z,5.80
2017-12-23T00:11:43.460Z,5.80
2017-12-23T00:14:13.221Z,5.90
2017-12-23T00:16:42.192Z,5.90
2017-12-23T00:19:11.145Z,5.90
2017-12-23T00:21:40.117Z,5.90
2017-12-23T00:24:09.880Z,5.90
2017-12-23T00:27:42.087Z,5.80
2017-12-23T00:30:11.040Z,5.80
2017-12-23T00:32:40.231Z,5.80
2017-12-23T00:35:10.070Z,5.90
2017-12-23T00:37:39.076Z,5.90
2017-12-23T00:40:08.462Z,5.80
2017-12-23T00:42:37.442Z,5.90
2017-12-23T00:45:06.384Z,5.90
2017-12-23T00:47:35.396Z,5.90
2017-12-23T00:50:05.157Z,5.90
2017-12-23T00:52:34.128Z,5.90
2017-12-23T00:55:03.077Z,5.90
2017-12-23T00:57:32.816Z,5.90
2017-12-23T01:00:01.820Z,5.80
2017-12-23T01:02:30.795Z,5.90
2017-12-23T01:05:00.501Z,5.90
2017-12-23T01:07:30.235Z,6.00
2017-12-23T01:09:59.262Z,5.90
2017-12-23T01:12:28.185Z,5.90
2017-12-23T01:14:57.969Z,5.90
2017-12-23T01:17:27.695Z,5.90
2017-12-23T01:19:56.679Z,5.90
2017-12-23T01:22:25.697Z,6.00
2017-12-23T01:24:54.654Z,6.00
2017-12-23T01:27:23.614Z,6.00
2017-12-23T01:29:52.563Z,5.90
2017-12-23T01:32:21.530Z,5.90
2017-12-23T01:34:50.516Z,5.90
2017-12-23T01:37:19.519Z,5.90
2017-12-23T01:39:48.603Z,5.90
2017-12-23T01:42:17.882Z,5.90
2017-12-23T01:44:46.855Z,5.90
2017-12-23T01:47:16.602Z,5.90
2017-12-23T01:49:45.539Z,5.90
2017-12-23T01:52:14.471Z,6.00
2017-12-23T01:54:43.427Z,5.90
2017-12-23T01:57:12.347Z,6.00
2017-12-23T01:59:42.043Z,6.00
2017-12-23T02:02:11.729Z,6.00
2017-12-23T02:04:40.806Z,5.90
2017-12-23T02:07:09.881Z,6.00
2017-12-23T02:09:41.875Z,6.00
2017-12-23T02:12:11.676Z,6.00
2017-12-23T02:14:40.656Z,5.90
2017-12-23T02:17:09.640Z,6.00
2017-12-23T02:19:38.606Z,6.00
2017-12-23T02:22:08.306Z,5.90
2017-12-23T02:24:38.032Z,5.90
2017-12-23T02:27:07.216Z,5.90
2017-12-23T02:29:36.921Z,5.70
2017-12-23T02:32:06.605Z,5.70
2017-12-23T02:34:35.546Z,5.70
2017-12-23T02:37:04.508Z,5.80
2017-12-23T02:39:33.481Z,5.70
2017-12-23T02:42:02.481Z,5.70
2017-12-23T02:44:31.855Z,5.70
2017-12-23T02:47:00.801Z,5.70
2017-12-23T02:49:30.908Z,5.60
2017-12-23T02:52:00.713Z,5.50
2017-12-23T02:54:30.437Z,5.50
2017-12-23T02:57:00.164Z,5.50
2017-12-23T02:59:29.113Z,5.40
2017-12-23T03:01:58.081Z,5.40
2017-12-23T03:04:27.099Z,5.50
2017-12-23T03:06:56.096Z,5.60
2017-12-23T03:09:25.084Z,5.60
2017-12-23T03:11:54.029Z,5.60
2017-12-23T03:14:22.981Z,5.70
2017-12-23T03:16:51.933Z,5.70
2017-12-23T03:19:20.907Z,5.80
2017-12-23T03:21:49.845Z,5.70
2017-12-23T03:24:18.827Z,5.70
2017-12-23T03:26:47.767Z,5.80
2017-12-23T03:29:17.468Z,5.80
2017-12-23T03:31:47.195Z,5.80
2017-12-23T03:34:16.146Z,5.80
2017-12-23T03:36:45.336Z,5.90
2017-12-23T03:39:14.338Z,5.90
2017-12-23T03:41:43.268Z,5.90
2017-12-23T03:44:12.242Z,5.90
2017-12-23T03:48:01.332Z,5.90
2017-12-23T03:50:30.264Z,5.90
2017-12-23T03:52:59.979Z,6.00
2017-12-23T03:55:29.008Z,6.00
2017-12-23T03:57:58.757Z,6.10
2017-12-23T04:00:27.729Z,6.00
2017-12-23T04:02:56.700Z,6.10
2017-12-23T04:05:26.399Z,6.10
2017-12-23T04:07:56.113Z,6.10
2017-12-23T04:10:25.836Z,6.10
2017-12-23T04:12:54.773Z,6.10
2017-12-23T04:15:23.758Z,6.10
2017-12-23T04:17:52.780Z,6.10
2017-12-23T04:20:21.724Z,6.10
2017-12-23T04:22:50.668Z,6.10
2017-12-23T04:25:19.888Z,6.20
2017-12-23T04:27:49.652Z,6.20
2017-12-23T04:30:18.640Z,6.10
2017-12-23T04:32:47.568Z,6.20
2017-12-23T04:38:49.311Z,6.20
2017-12-23T04:41:18.319Z,6.10
2017-12-23T04:45:06.626Z,6.20
2017-12-23T04:47:35.622Z,6.20
2017-12-23T04:50:04.645Z,6.20
2017-12-23T04:52:33.620Z,6.10
2017-12-23T04:55:02.602Z,6.10
2017-12-23T04:57:31.556Z,6.10
2017-12-23T05:00:01.324Z,6.00
2017-12-23T05:02:30.293Z,6.00
2017-12-23T05:04:59.226Z,6.10
2017-12-23T05:07:28.203Z,6.00
2017-12-23T05:09:57.160Z,6.00
2017-12-23T05:12:26.102Z,6.00
2017-12-23T05:14:55.036Z,6.00
2017-12-23T05:17:24.004Z,6.10
2017-12-23T05:19:53.688Z,6.10
2017-12-23T05:22:22.819Z,6.10
2017-12-23T05:24:52.581Z,6.10
2017-12-23T05:27:21.576Z,6.10
2017-12-23T05:29:50.539Z,6.20
2017-12-23T05:32:19.508Z,6.10
2017-12-23T05:34:48.465Z,6.00
2017-12-23T05:37:17.459Z,6.10
2017-12-23T05:39:46.422Z,6.10
2017-12-23T05:42:15.373Z,6.10
2017-12-23T05:44:45.105Z,6.10
2017-12-23T05:47:14.036Z,6.00
2017-12-23T05:49:43.800Z,6.20
2017-12-23T05:52:12.770Z,6.10
2017-12-23T05:54:42.543Z,6.10
2017-12-23T05:57:11.537Z,6.10
2017-12-23T05:59:40.492Z,6.20
2017-12-23T06:02:09.428Z,6.20
2017-12-23T06:04:38.362Z,6.20
2017-12-23T06:07:07.301Z,6.20
2017-12-23T06:09:36.232Z,6.20
2017-12-23T06:12:05.951Z,6.30
2017-12-23T06:15:05.926Z,6.30
2017-12-23T06:17:34.890Z,6.20
2017-12-23T06:20:03.840Z,6.30
2017-12-23T06:22:33.538Z,6.40
2017-12-23T06:25:02.507Z,6.40
2017-12-23T06:27:31.513Z,6.40
2017-12-23T06:30:00.481Z,6.50
2017-12-23T06:32:29.449Z,6.50
2017-12-23T06:34:58.430Z,6.50
2017-12-23T06:37:27.375Z,6.60
2017-12-23T06:39:56.318Z,6.60
2017-12-23T06:42:25.259Z,6.60
2017-12-23T06:44:54.989Z,6.70
2017-12-23T06:47:23.916Z,6.70
2017-12-23T06:49:53.128Z,6.70
2017-12-23T06:52:22.063Z,6.70
2017-12-23T06:54:51.114Z,6.70
2017-12-23T06:57:20.086Z,6.80
2017-12-23T06:59:49.230Z,6.80
2017-12-23T07:02:18.174Z,6.80
2017-12-23T07:04:47.114Z,6.80
2017-12-23T07:07:16.072Z,6.80
2017-12-23T07:09:45.049Z,6.90
2017-12-23T07:12:14.013Z,6.90
2017-12-23T07:14:43.005Z,6.90
2017-12-23T07:17:12.777Z,6.90
2017-12-23T07:19:41.810Z,6.80
2017-12-23T07:22:10.785Z,6.90
2017-12-23T07:24:39.794Z,6.90
2017-12-23T07:27:08.823Z,7.00
2017-12-23T07:29:37.816Z,7.00
2017-12-23T07:32:06.857Z,7.00
2017-12-23T07:34:35.799Z,7.00
2017-12-23T07:37:05.052Z,7.00
2017-12-23T07:39:33.965Z,7.00
2017-12-23T07:42:03.765Z,7.00
2017-12-23T07:44:32.814Z,7.00
2017-12-23T07:47:01.840Z,7.10
2017-12-23T07:49:30.880Z,7.10
2017-12-23T07:51:59.899Z,7.10
2017-12-23T07:54:28.930Z,7.10
2017-12-23T07:56:57.922Z,7.10
2017-12-23T07:59:27.657Z,7.10
2017-12-23T08:02:27.853Z,7.10
2017-12-23T08:04:56.837Z,7.10
2017-12-23T08:07:26.572Z,7.20
2017-12-23T08:09:55.521Z,7.10
2017-12-23T08:12:25.609Z,7.20
2017-12-23T08:14:54.584Z,7.20
2017-12-23T08:17:24.340Z,7.20
2017-12-23T08:19:53.327Z,7.20
2017-12-23T08:22:22.352Z,7.30
2017-12-23T08:24:51.349Z,7.30
2017-12-23T08:27:20.421Z,7.30
2017-12-23T08:29:49.514Z,7.20
2017-12-23T08:32:19.207Z,7.30
2017-12-23T08:34:48.461Z,7.30
2017-12-23T08:37:18.192Z,7.30
2017-12-23T08:39:48.143Z,7.30
2017-12-23T08:42:17.885Z,7.30
2017-12-23T08:44:47.618Z,7.30
2017-12-23T08:47:17.360Z,7.30
2017-12-23T08:49:46.600Z,7.30
2017-12-23T08:52:15.683Z,7.30
2017-12-23T08:54:44.645Z,7.40
2017-12-23T08:57:13.666Z,7.40
2017-12-23T08:59:42.848Z,7.40
2017-12-23T09:02:11.964Z,7.40
2017-12-23T09:04:40.994Z,7.40
2017-12-23T09:07:12.374Z,7.40
2017-12-23T09:09:44.367Z,7.50
2017-12-23T09:12:14.636Z,7.40
2017-12-23T09:14:43.644Z,7.40
2017-12-23T09:17:13.571Z,7.50
2017-12-23T09:19:42.563Z,7.50
2017-12-23T09:22:12.447Z,7.50
2017-12-23T09:24:42.502Z,7.60
2017-12-23T09:27:12.569Z,7.50
2017-12-23T09:29:45.972Z,7.50
2017-12-23T09:32:14.972Z,7.60
2017-12-23T09:34:44.778Z,7.50
2017-12-23T09:37:14.847Z,7.60
2017-12-23T09:39:44.432Z,7.50
2017-12-23T09:42:13.536Z,7.50
2017-12-23T09:44:42.520Z,7.60
2017-12-23T09:47:11.823Z,7.60
2017-12-23T09:49:41.979Z,7.60
2017-12-23T09:52:12.153Z,7.60
2017-12-23T09:54:41.401Z,7.60
2017-12-23T09:57:11.020Z,7.60
2017-12-23T09:59:40.542Z,7.60
2017-12-23T10:05:41.333Z,7.60
2017-12-23T10:08:10.401Z,7.60
2017-12-23T10:10:40.303Z,7.60
2017-12-23T10:13:10.310Z,7.60
2017-12-23T10:15:40.532Z,7.70
2017-12-23T10:18:09.585Z,7.70
2017-12-23T10:20:39.394Z,7.70
2017-12-23T10:25:36.605Z,7.70
2017-12-23T10:28:09.481Z,7.70
2017-12-23T10:30:39.215Z,7.70
2017-12-23T10:33:09.049Z,7.60
2017-12-23T10:35:39.415Z,7.70
2017-12-23T10:38:10.124Z,7.60
2017-12-23T10:40:39.228Z,7.60
2017-12-23T10:43:08.270Z,7.70
2017-12-23T10:45:37.346Z,7.70
2017-12-23T10:48:07.165Z,7.60
2017-12-23T10:50:36.689Z,7.60
2017-12-23T10:53:07.390Z,7.60
2017-12-23T10:55:36.621Z,7.50
2017-12-23T10:58:06.494Z,7.60
2017-12-23T11:00:35.539Z,7.50
2017-12-23T11:03:06.166Z,7.70
2017-12-23T11:05:36.421Z,7.60
2017-12-23T11:08:06.398Z,7.60
2017-12-23T11:10:35.435Z,7.60
2017-12-23T11:13:04.557Z,7.60
2017-12-23T11:15:33.636Z,7.60
2017-12-23T11:18:03.630Z,7.60
2017-12-23T11:20:35.784Z,7.60
2017-12-23T11:23:06.733Z,7.60
2017-12-23T11:25:35.729Z,7.60
2017-12-23T11:28:07.141Z,7.60
2017-12-23T11:30:37.469Z,7.60
2017-12-23T11:33:07.416Z,7.60
2017-12-23T11:35:37.503Z,7.70
2017-12-23T11:38:09.421Z,7.70
2017-12-23T11:40:39.163Z,7.60
2017-12-23T11:43:14.350Z,7.70
2017-12-23T11:45:45.058Z,7.60
2017-12-23T11:48:23.696Z,7.60
2017-12-23T11:50:53.644Z,7.60
2017-12-23T11:53:31.188Z,7.60
2017-12-23T11:56:01.204Z,7.60
2017-12-23T11:58:32.431Z,7.60
2017-12-23T12:01:01.729Z,7.70
2017-12-23T12:03:34.364Z,7.80
2017-12-23T12:06:04.846Z,7.70
2017-12-23T12:08:36.773Z,7.80
2017-12-23T12:11:07.032Z,7.80
2017-12-23T12:13:38.711Z,7.80
2017-12-23T12:16:09.417Z,7.80
2017-12-23T12:18:40.003Z,7.80
2017-12-23T12:21:12.055Z,7.70
2017-12-23T12:23:41.133Z,7.80
2017-12-23T12:26:11.287Z,7.80
2017-12-23T12:28:42.678Z,7.80
2017-12-23T12:31:14.440Z,7.80
2017-12-23T12:33:47.819Z,7.80
2017-12-23T12:36:18.113Z,7.80
2017-12-23T12:38:48.540Z,7.70
2017-12-23T12:41:19.124Z,7.80
2017-12-23T12:43:51.519Z,7.80
2017-12-23T12:46:27.244Z,7.70
2017-12-23T12:48:57.643Z,7.80
2017-12-23T12:54:27.553Z,7.80
2017-12-23T12:56:58.634Z,7.80
2017-12-23T12:59:30.057Z,7.80
2017-12-23T13:02:01.132Z,7.80
2017-12-23T13:04:32.983Z,7.90
2017-12-23T13:07:02.089Z,7.80
2017-12-23T13:09:33.020Z,7.90
2017-12-23T13:12:05.029Z,7.90
2017-12-23T13:14:36.742Z,7.90
2017-12-23T13:17:13.553Z,8.00
2017-12-23T13:19:50.248Z,7.90
2017-12-23T13:22:22.483Z,8.00
2017-12-23T13:24:56.020Z,8.00
2017-12-23T13:27:28.311Z,8.00
2017-12-23T13:30:00.187Z,8.00
2017-12-23T13:32:30.836Z,8.00
2017-12-23T13:35:03.782Z,8.00
2017-12-23T13:37:35.053Z,7.90
2017-12-23T13:40:06.461Z,8.00
2017-12-23T13:42:36.782Z,7.90
2017-12-23T13:49:08.481Z,7.80
2017-12-23T13:51:38.057Z,7.80
2017-12-23T13:54:07.109Z,7.90
2017-12-23T13:56:39.956Z,7.90
2017-12-23T13:59:09.712Z,7.80
2017-12-23T14:01:40.630Z,7.80
2017-12-23T14:04:09.771Z,7.70
2017-12-23T14:06:40.840Z,7.80
2017-12-23T14:09:11.423Z,7.80
2017-12-23T14:11:41.325Z,7.70
2017-12-23T14:14:12.196Z,7.80
2017-12-23T14:16:43.200Z,7.70
2017-12-23T14:19:14.192Z,7.70
2017-12-23T14:21:44.906Z,7.70
2017-12-23T14:24:16.067Z,7.70
2017-12-23T14:26:46.420Z,7.60
2017-12-23T14:29:15.712Z,7.70
2017-12-23T14:31:45.898Z,7.70
2017-12-23T14:34:17.014Z,7.70
2017-12-23T14:36:49.097Z,7.70
2017-12-23T14:39:19.545Z,7.60
2017-12-23T14:41:49.720Z,7.60
2017-12-23T14:44:22.631Z,7.70
2017-12-23T14:46:52.419Z,7.70
2017-12-23T14:49:23.976Z,7.80
2017-12-23T14:51:54.456Z,7.80
2017-12-23T14:54:23.596Z,7.70
2017-12-23T14:56:54.598Z,7.80
2017-12-23T14:59:25.722Z,7.70
2017-12-23T15:01:55.436Z,7.60
2017-12-23T15:04:28.225Z,7.70
2017-12-23T15:06:58.825Z,7.80
2017-12-23T15:09:28.625Z,7.80
2017-12-23T15:11:59.411Z,7.80
2017-12-23T15:14:29.442Z,7.70
2017-12-23T15:16:59.595Z,7.80
2017-12-23T15:19:28.776Z,7.80
2017-12-23T15:22:01.964Z,7.80
2017-12-23T15:24:35.074Z,7.80
2017-12-23T15:27:07.038Z,7.70
2017-12-23T15:29:37.973Z,7.80
2017-12-23T15:32:08.972Z,7.80
2017-12-23T15:34:38.843Z,7.80
2017-12-23T15:37:09.093Z,7.70
2017-12-23T15:39:39.248Z,7.80
2017-12-23T15:42:08.415Z,7.70
2017-12-23T15:44:38.036Z,7.70
2017-12-23T15:47:10.407Z,7.70
2017-12-23T15:49:41.781Z,7.80
2017-12-23T15:52:14.982Z,7.80
2017-12-23T15:54:46.316Z,7.80
2017-12-23T15:57:17.873Z,7.90
2017-12-23T15:59:48.351Z,7.90
2017-12-23T16:02:18.339Z,7.80
2017-12-23T16:04:48.295Z,7.90
2017-12-23T16:07:19.860Z,7.80
2017-12-23T16:09:50.329Z,7.80
2017-12-23T16:13:23.805Z,7.80
2017-12-23T16:15:54.344Z,7.70
2017-12-23T16:18:26.183Z,7.80
2017-12-23T16:20:56.608Z,7.80
2017-12-23T16:23:27.627Z,7.80
2017-12-23T16:25:58.704Z,7.80
2017-12-23T16:28:30.339Z,7.70
2017-12-23T16:31:01.608Z,7.70
2017-12-23T16:33:35.584Z,7.80
2017-12-23T16:36:08.304Z,7.70
2017-12-23T16:38:42.121Z,7.70
2017-12-23T16:42:15.961Z,7.70
2017-12-23T16:44:51.938Z,7.80
2017-12-23T16:47:26.740Z,7.70
2017-12-23T16:50:02.038Z,7.80
2017-12-23T16:52:41.016Z,7.80
2017-12-23T16:55:14.694Z,7.80
2017-12-23T16:57:47.317Z,7.70
2017-12-23T17:00:18.638Z,7.70
2017-12-23T17:02:53.573Z,7.70
2017-12-23T17:06:42.824Z,7.70
2017-12-23T17:09:24.654Z,7.70
2017-12-23T17:12:01.055Z,7.70
2017-12-23T17:14:51.500Z,7.70
2017-12-23T17:17:25.822Z,7.70
2017-12-23T17:20:03.915Z,7.70
2017-12-23T17:22:34.383Z,7.80
2017-12-23T17:25:05.332Z,7.70
2017-12-23T17:27:36.328Z,7.80
2017-12-23T17:30:17.117Z,7.70
2017-12-23T17:32:46.975Z,7.80
2017-12-23T17:35:20.562Z,7.70
2017-12-23T17:37:50.249Z,7.60
2017-12-23T17:40:20.009Z,7.60
2017-12-23T17:42:51.739Z,7.60
2017-12-23T17:45:23.663Z,7.60
2017-12-23T17:47:58.935Z,7.60
2017-12-23T17:50:32.843Z,7.60
2017-12-23T17:53:06.217Z,7.60
2017-12-23T17:55:35.768Z,7.50
2017-12-23T17:58:06.266Z,7.50
2017-12-23T18:00:40.108Z,7.50
2017-12-23T18:03:12.935Z,7.50
2017-12-23T18:05:48.766Z,7.50
2017-12-23T18:08:19.563Z,7.50
2017-12-23T18:10:49.650Z,7.50
2017-12-23T18:13:34.245Z,7.50
2017-12-23T18:16:10.463Z,7.60
2017-12-23T18:19:00.373Z,7.60
2017-12-23T18:21:36.643Z,7.60
2017-12-23T18:24:08.733Z,7.50
2017-12-23T18:26:51.601Z,7.50
2017-12-23T18:29:34.227Z,7.50
2017-12-23T18:32:14.085Z,7.50
2017-12-23T18:35:05.419Z,7.50
2017-12-23T18:37:55.862Z,7.40
2017-12-23T18:40:32.965Z,7.50
2017-12-23T18:43:24.772Z,7.50
2017-12-23T18:46:01.105Z,7.50
2017-12-23T18:48:51.084Z,7.50
2017-12-23T18:51:26.134Z,7.50
2017-12-23T18:54:13.987Z,7.40
2017-12-23T18:57:09.018Z,7.50
2017-12-23T18:59:55.648Z,7.40
2017-12-23T19:02:46.700Z,7.40
2017-12-23T19:08:34.672Z,7.40
2017-12-23T19:11:14.163Z,7.50
2017-12-23T19:14:06.431Z,7.50
2017-12-23T19:16:51.184Z,7.50
2017-12-23T19:19:37.219Z,7.50
2017-12-23T19:22:19.602Z,7.50
2017-12-23T19:25:01.058Z,7.40
2017-12-23T19:27:55.036Z,7.40
2017-12-23T19:30:43.383Z,7.40
2017-12-23T19:33:30.758Z,7.50
2017-12-23T19:36:05.477Z,7.50
2017-12-23T19:38:42.439Z,7.50
2017-12-23T19:41:41.532Z,7.50
2017-12-23T19:44:12.634Z,7.50
2017-12-23T19:46:45.570Z,7.60
2017-12-23T19:49:18.451Z,7.50
2017-12-23T19:51:51.003Z,7.60
2017-12-23T19:54:29.129Z,7.60
2017-12-23T19:57:04.905Z,7.60
2017-12-23T19:59:39.256Z,7.60
2017-12-23T20:02:17.730Z,7.50
2017-12-23T20:05:02.978Z,7.60
2017-12-23T20:07:39.319Z,7.60
2017-12-23T20:10:10.894Z,7.60
2017-12-23T20:15:35.610Z,7.60
2017-12-23T20:18:17.816Z,7.60
2017-12-23T20:20:58.533Z,7.60
2017-12-23T20:23:33.299Z,7.60
2017-12-23T20:26:13.952Z,7.60
2017-12-23T20:28:46.299Z,7.60
2017-12-23T20:31:19.429Z,7.60
2017-12-23T20:33:52.386Z,7.70
2017-12-23T20:36:22.716Z,7.70
2017-12-23T20:38:56.041Z,7.60
2017-12-23T20:41:27.080Z,7.60
2017-12-23T20:43:58.348Z,7.70
2017-12-23T20:46:27.570Z,7.70
2017-12-23T20:48:56.657Z,7.70
2017-12-23T20:51:30.644Z,7.70
2017-12-23T20:54:05.874Z,7.70
2017-12-23T20:56:45.526Z,7.70
2017-12-23T20:59:25.300Z,7.70
2017-12-23T21:01:54.335Z,7.70
2017-12-23T21:04:27.874Z,7.80
2017-12-23T21:06:57.500Z,7.70
2017-12-23T21:09:31.458Z,7.80
2017-12-23T21:12:00.533Z,7.70
2017-12-23T21:14:35.573Z,7.60
2017-12-23T21:17:10.829Z,7.60
2017-12-23T21:19:40.976Z,7.60
2017-12-23T21:22:13.387Z,7.60
2017-12-23T21:24:43.987Z,7.60
2017-12-23T21:27:12.983Z,7.60
2017-12-23T21:29:41.995Z,7.60
2017-12-23T21:32:21.158Z,7.50
2017-12-23T21:34:51.992Z,7.50
2017-12-23T21:37:21.528Z,7.40
2017-12-23T21:39:56.553Z,7.40
2017-12-23T21:42:31.060Z,7.40
2017-12-23T21:45:04.281Z,7.30
2017-12-23T21:47:35.246Z,7.30
2017-12-23T21:50:05.505Z,7.30
2017-12-23T21:52:34.596Z,7.30
2017-12-23T21:55:08.590Z,7.30
2017-12-23T21:57:41.715Z,7.30
2017-12-23T22:00:14.265Z,7.30
2017-12-23T22:05:26.219Z,7.30
2017-12-23T22:08:06.750Z,7.30
2017-12-23T22:10:35.812Z,7.30
2017-12-23T22:13:04.870Z,7.40
2017-12-23T22:15:38.297Z,7.40
2017-12-23T22:18:12.458Z,7.40
2017-12-23T22:20:46.749Z,7.40
2017-12-23T22:23:15.802Z,7.40
2017-12-23T22:25:45.617Z,7.40
2017-12-23T22:28:24.866Z,7.40
2017-12-23T22:31:01.276Z,7.40
2017-12-23T22:33:41.657Z,7.40
2017-12-23T22:36:12.427Z,7.40
2017-12-23T22:38:47.117Z,7.40
2017-12-23T22:41:27.896Z,7.40
2017-12-23T22:44:00.590Z,7.50
2017-12-23T22:46:36.094Z,7.50
2017-12-23T22:49:05.235Z,7.50
2017-12-23T22:51:34.214Z,7.50
2017-12-23T22:54:03.199Z,7.50
2017-12-23T22:56:32.226Z,7.50
2017-12-23T22:59:01.172Z,7.50
2017-12-23T23:01:30.952Z,7.50
2017-12-23T23:04:00.012Z,7.50
2017-12-23T23:06:29.049Z,7.50
2017-12-23T23:08:58.100Z,7.50
2017-12-23T23:11:27.135Z,7.50
2017-12-23T23:13:56.964Z,7.50
2017-12-23T23:16:26.733Z,7.50
2017-12-23T23:18:55.749Z,7.40
2017-12-23T23:21:24.724Z,7.50
2017-12-23T23:23:53.913Z,7.60
2017-12-23T23:26:22.902Z,7.60
2017-12-23T23:28:52.309Z,7.60
2017-12-23T23:31:21.268Z,7.50
2017-12-23T23:33:50.258Z,7.60
2017-12-23T23:36:20.100Z,7.50
2017-12-23T23:38:49.123Z,7.50
2017-12-23T23:41:18.154Z,7.50
2017-12-23T23:43:47.936Z,7.60
2017-12-23T23:46:17.792Z,7.60
2017-12-23T23:48:46.759Z,7.60
2017-12-23T23:51:20.777Z,7.60
2017-12-23T23:53:50.552Z,7.60
2017-12-23T23:56:22.556Z,7.60
2017-12-23T23:58:52.353Z,7.70
